Time;durP1;ratioP1;P1;durP2;ratioP2;P2;SDS_P1;SDS_P2;PMS_P1;PMS_P2;Temp;Humidity;BMP_temperature;BMP_pressure;BME280_temperature;BME280_humidity;BME280_pressure;Samples;Min_cycle;Max_cycle;Signal;HPM_P1;HPM_P2
2024/01/05 00:02:00;;;;;;;98.75;56.15;;;;;;;;;;5048602;28;20072;-73
2024/01/05 00:05:05;;;;;;;98.53;55.75;;;;;;;;;;5048366;28;20040;-73
2024/01/05 00:08:12;;;;;;;96.40;54.15;;;;;;;;;;5048809;28;20044;-73
2024/01/05 00:11:17;;;;;;;99.97;53.63;;;13.10;99.90;;;;;;5095724;27;20504;-73
2024/01/05 00:14:21;;;;;;;92.88;54.53;;;;;;;;;;5048473;28;20527;-73
2024/01/05 00:17:26;;;;;;;99.28;54.60;;;;;;;;;;5048312;28;20649;-73
2024/01/05 00:20:30;;;;;;;102.80;55.22;;;;;;;;;;5048644;28;20052;-73
2024/01/05 00:23:34;;;;;;;101.22;56.65;;;;;;;;;;5047966;28;20507;-73
2024/01/05 00:26:41;;;;;;;100.88;57.42;;;12.40;99.90;;;;;;5048352;28;20036;-73
2024/01/05 00:29:46;;;;;;;106.80;63.03;;;;;;;;;;5048281;28;20052;-73
2024/01/05 00:32:50;;;;;;;122.68;65.63;;;;;;;;;;5048131;28;20052;-73
2024/01/05 00:35:55;;;;;;;127.28;70.60;;;;;;;;;;5048066;28;20051;-73
2024/01/05 00:39:00;;;;;;;111.45;65.05;;;;;;;;;;5048103;28;20064;-73
2024/01/05 00:42:05;;;;;;;103.35;65.00;;;;;;;;;;5047857;28;20044;-73
2024/01/05 00:45:09;;;;;;;117.18;68.25;;;;;;;;;;5095812;28;20502;-73
2024/01/05 00:48:17;;;;;;;112.18;63.58;;;;;;;;;;5048057;28;20519;-72
2024/01/05 00:51:21;;;;;;;110.45;61.58;;;;;;;;;;5048398;28;20044;-73
2024/01/05 00:54:26;;;;;;;111.68;57.83;;;;;;;;;;5051359;28;20511;-73
2024/01/05 00:57:31;;;;;;;107.68;60.42;;;;;;;;;;5051609;28;20440;-73
2024/01/05 01:00:35;;;;;;;102.18;58.92;;;;;;;;;;5051419;28;20388;-73
2024/01/05 01:03:39;;;;;;;95.88;57.55;;;;;;;;;;5087380;28;20499;-73
2024/01/05 01:06:44;;;;;;;99.68;56.92;;;;;;;;;;5099148;27;20044;-73
2024/01/05 01:09:48;;;;;;;109.97;57.50;;;;;;;;;;5051227;28;20048;-73
2024/01/05 01:12:52;;;;;;;90.43;56.22;;;;;;;;;;5051076;28;20040;-73
2024/01/05 01:15:57;;;;;;;98.85;52.72;;;;;;;;;;5050999;28;20056;-73
2024/01/05 01:19:01;;;;;;;103.13;56.08;;;;;;;;;;5051138;28;20048;-73
2024/01/05 01:22:05;;;;;;;93.72;54.10;;;;;;;;;;5051018;28;20040;-73
2024/01/05 01:25:10;;;;;;;87.18;47.92;;;;;;;;;;5050903;28;20523;-73
2024/01/05 01:28:14;;;;;;;90.93;49.38;;;;;;;;;;5051050;28;20044;-73
2024/01/05 01:31:18;;;;;;;91.10;51.00;;;;;;;;;;5051276;28;20044;-73
2024/01/05 01:34:23;;;;;;;82.50;48.47;;;;;;;;;;5050741;28;20044;-73
2024/01/05 01:37:27;;;;;;;87.03;47.20;;;;;;;;;;5098438;27;20052;-73
2024/01/05 01:40:31;;;;;;;78.43;42.88;;;;;;;;;;5050877;28;20048;-73
2024/01/05 01:43:36;;;;;;;83.75;44.97;;;;;;;;;;5050707;28;20151;-73
2024/01/05 01:46:40;;;;;;;83.40;44.95;;;;;;;;;;5050786;28;20044;-73
2024/01/05 01:49:44;;;;;;;75.30;43.38;;;;;;;;;;5050764;28;20059;-73
2024/01/05 01:52:49;;;;;;;94.97;47.05;;;;;;;;;;5050327;28;20040;-73
2024/01/05 01:55:53;;;;;;;80.38;44.92;;;;;;;;;;5050437;28;20060;-73
2024/01/05 01:58:58;;;;;;;84.53;44.30;;;;;;;;;;5050357;28;20043;-73
2024/01/05 02:02:02;;;;;;;74.25;44.00;;;;;;;;;;5049632;28;20052;-73
2024/01/05 02:05:06;;;;;;;70.32;42.90;;;;;;;;;;5050021;28;20484;-73
2024/01/05 02:08:11;;;;;;;78.28;42.80;;;11.70;99.90;;;;;;5050050;28;20044;-72
2024/01/05 02:11:16;;;;;;;73.07;44.70;;;12.20;99.90;;;;;;5097779;27;20068;-72
2024/01/05 02:14:21;;;;;;;78.03;42.88;;;;;;;;;;5049977;28;20035;-72
2024/01/05 02:17:28;;;;;;;73.13;44.58;;;11.70;99.90;;;;;;5097330;27;20052;-72
2024/01/05 02:20:32;;;;;;;70.78;43.63;;;;;;;;;;5049784;28;20048;-72
2024/01/05 02:23:37;;;;;;;78.28;40.47;;;;;;;;;;5049468;28;20044;-72
2024/01/05 02:26:42;;;;;;;77.78;41.72;;;;;;;;;;5049262;28;20045;-72
2024/01/05 02:29:46;;;;;;;72.30;40.47;;;;;;;;;;5097132;27;20055;-72
2024/01/05 02:32:51;;;;;;;69.35;41.65;;;;;;;;;;5049081;28;20048;-72
2024/01/05 02:35:55;;;;;;;65.22;39.47;;;;;;;;;;5085478;27;20048;-72
2024/01/05 02:38:59;;;;;;;70.70;39.92;;;;;;;;;;5049107;28;20044;-72
2024/01/05 02:42:03;;;;;;;66.80;37.53;;;;;;;;;;5097149;27;20396;-72
2024/01/05 02:45:08;;;;;;;68.30;38.03;;;;;;;;;;5049488;28;20075;-72
2024/01/05 02:48:12;;;;;;;71.55;39.80;;;;;;;;;;5049199;28;20056;-72
2024/01/05 02:51:16;;;;;;;66.40;36.50;;;;;;;;;;5097218;27;20059;-72
2024/01/05 02:54:20;;;;;;;68.20;38.28;;;;;;;;;;5049355;28;20044;-72
2024/01/05 02:57:25;;;;;;;60.47;36.53;;;;;;;;;;5049079;28;20052;-72
2024/01/05 03:00:29;;;;;;;64.40;36.20;;;;;;;;;;5096531;27;20048;-72
2024/01/05 03:03:33;;;;;;;63.83;36.47;;;;;;;;;;5049159;28;20056;-72
2024/01/05 03:06:38;;;;;;;55.58;34.45;;;;;;;;;;5049208;28;20063;-72
2024/01/05 03:09:42;;;;;;;63.30;35.95;;;;;;;;;;5049166;28;20044;-72
2024/01/05 03:12:48;;;;;;;56.63;34.63;;;;;;;;;;5049034;28;20052;-72
2024/01/05 03:15:53;;;;;;;57.80;35.22;;;;;;;;;;5095921;27;20056;-72
2024/01/05 03:18:57;;;;;;;56.53;33.95;;;;;;;;;;5048577;28;20060;-72
2024/01/05 03:22:02;;;;;;;60.75;35.00;;;;;;;;;;5048773;28;20044;-71
2024/01/05 03:25:06;;;;;;;56.15;33.20;;;;;;;;;;5048875;28;20037;-73
2024/01/05 03:28:11;;;;;;;57.05;32.33;;;;;;;;;;5048589;28;20044;-73
2024/01/05 03:31:15;;;;;;;56.00;34.03;;;;;;;;;;5048534;28;20534;-73
2024/01/05 03:34:19;;;;;;;52.55;33.03;;;;;;;;;;5048766;28;20052;-73
2024/01/05 03:37:24;;;;;;;56.90;32.13;;;;;;;;;;5048517;28;20408;-73
2024/01/05 03:40:28;;;;;;;49.83;31.92;;;;;;;;;;5048731;28;20048;-73
2024/01/05 03:43:32;;;;;;;53.65;32.63;;;;;;;;;;5048536;28;20048;-73
2024/01/05 03:46:36;;;;;;;47.85;31.35;;;;;;;;;;5048348;28;20041;-73
2024/01/05 03:49:41;;;;;;;47.85;30.13;;;;;;;;;;5048150;28;20056;-73
2024/01/05 03:52:45;;;;;;;55.38;32.25;;;;;;;;;;5048416;28;20055;-73
2024/01/05 03:55:49;;;;;;;52.63;30.48;;;;;;;;;;5048069;28;20503;-73
2024/01/05 03:58:54;;;;;;;51.33;29.05;;;;;;;;;;5048312;28;20056;-73
2024/01/05 04:01:58;;;;;;;52.17;29.27;;;;;;;;;;5048106;28;20060;-73
2024/01/05 04:05:02;;;;;;;47.50;29.95;;;10.60;99.90;;;;;;5048116;28;20044;-73
2024/01/05 04:08:07;;;;;;;51.05;29.50;;;;;;;;;;5048142;28;20499;-73
2024/01/05 04:11:18;;;;;;;44.88;27.42;;;11.10;99.90;;;;;;5048079;28;20048;-73
2024/01/05 04:14:22;;;;;;;46.35;27.67;;;;;;;;;;5048200;28;20381;-73
2024/01/05 04:17:26;;;;;;;46.78;25.98;;;10.70;99.90;;;;;;5047658;28;20080;-73
2024/01/05 04:20:30;;;;;;;44.10;27.30;;;10.70;99.90;;;;;;5095799;27;20044;-73
2024/01/05 04:23:34;;;;;;;40.80;25.95;;;9.20;99.90;;;;;;5048014;28;20498;-73
2024/01/05 04:26:38;;;;;;;42.72;25.83;;;10.90;99.90;;;;;;5046616;28;20048;-73
2024/01/05 04:29:42;;;;;;;46.40;26.35;;;;;;;;;;5047888;28;20052;-73
2024/01/05 04:32:46;;;;;;;42.55;26.13;;;;;;;;;;5095480;27;20040;-74
2024/01/05 04:35:50;;;;;;;46.47;26.48;;;9.10;99.90;;;;;;5047402;28;20052;-74
2024/01/05 04:38:54;;;;;;;56.05;26.60;;;11.00;99.90;;;;;;5047812;28;20048;-74
2024/01/05 04:41:59;;;;;;;42.63;25.20;;;;;;;;;;5047547;28;20056;-73
2024/01/05 04:45:03;;;;;;;49.75;26.00;;;9.80;99.90;;;;;;5047388;28;20484;-73
2024/01/05 04:48:09;;;;;;;50.55;26.27;;;10.90;99.90;;;;;;5047641;28;20179;-73
2024/01/05 04:51:13;;;;;;;43.30;25.52;;;10.70;99.90;;;;;;5047570;28;20048;-73
2024/01/05 04:54:17;;;;;;;49.05;25.60;;;10.90;99.90;;;;;;5048039;28;20045;-73
2024/01/05 04:57:21;;;;;;;40.97;23.50;;;;;;;;;;5047398;28;20052;-73
2024/01/05 05:00:25;;;;;;;48.58;25.27;;;;;;;;;;5047603;28;20044;-73
2024/01/05 05:03:30;;;;;;;47.42;25.75;;;;;;;;;;5047475;28;20512;-73
2024/01/05 05:06:34;;;;;;;61.72;26.17;;;9.20;99.90;;;;;;5047560;28;20040;-73
2024/01/05 05:09:39;;;;;;;54.53;25.88;;;11.00;99.90;;;;;;5047208;28;20427;-73
2024/01/05 05:12:43;;;;;;;53.10;23.42;;;;;;;;;;5047144;28;20041;-73
2024/01/05 05:15:47;;;;;;;41.20;23.73;;;;;;;;;;5094950;28;20040;-73
2024/01/05 05:18:52;;;;;;;51.90;25.23;;;;;;;;;;5046897;28;20141;-73
2024/01/05 05:21:56;;;;;;;52.15;24.17;;;;;;;;;;5047068;28;20070;-73
2024/01/05 05:25:00;;;;;;;48.55;23.30;;;;;;;;;;5046900;28;20511;-73
2024/01/05 05:28:04;;;;;;;44.83;22.27;;;;;;;;;;5046869;28;20409;-73
2024/01/05 05:31:09;;;;;;;40.22;21.75;;;11.30;99.90;;;;;;5046749;28;20044;-73
2024/01/05 05:34:13;;;;;;;45.55;23.42;;;;;;;;;;5047104;28;20044;-73
2024/01/05 05:37:18;;;;;;;49.08;23.75;;;;;;;;;;5047331;28;20544;-73
2024/01/05 05:40:22;;;;;;;42.45;22.13;;;;;;;;;;5098575;27;20423;-73
2024/01/05 05:43:26;;;;;;;50.72;23.58;;;;;;;;;;5050496;28;20056;-73
2024/01/05 05:46:31;;;;;;;52.20;22.83;;;;;;;;;;5050562;28;20056;-73
2024/01/05 05:49:35;;;;;;;41.53;21.20;;;;;;;;;;5050111;28;20055;-73
2024/01/05 05:52:43;;;;;;;48.60;22.10;;;11.20;99.90;;;;;;5097874;27;20380;-73
2024/01/05 05:55:48;;;;;;;42.85;22.10;;;;;;;;;;5050206;28;20063;-73
2024/01/05 05:58:53;;;;;;;43.38;21.60;;;;;;;;;;5050221;28;20071;-73
2024/01/05 06:01:57;;;;;;;42.42;20.67;;;;;;;;;;5049803;28;20044;-73
2024/01/05 06:05:02;;;;;;;37.05;19.70;;;;;;;;;;5050121;28;20450;-73
2024/01/05 06:08:06;;;;;;;50.63;21.63;;;;;;;;;;5050294;28;20495;-73
2024/01/05 06:11:10;;;;;;;39.10;18.48;;;;;;;;;;5050124;28;20044;-74
2024/01/05 06:14:14;;;;;;;37.47;19.88;;;;;;;;;;5049971;28;20036;-72
2024/01/05 06:17:19;;;;;;;48.72;21.15;;;;;;;;;;5085615;28;20064;-72
2024/01/05 06:20:23;;;;;;;41.10;21.70;;;;;;;;;;5050040;28;20121;-72
2024/01/05 06:23:28;;;;;;;59.70;22.27;;;;;;;;;;5050031;28;20051;-72
2024/01/05 06:26:32;;;;;;;42.75;18.50;;;;;;;;;;5049616;28;20040;-72
2024/01/05 06:29:36;;;;;;;43.47;19.25;;;;;;;;;;5049842;28;20048;-73
2024/01/05 06:32:41;;;;;;;42.20;17.98;;;;;;;;;;5049417;28;20483;-69
2024/01/05 06:35:45;;;;;;;39.20;19.02;;;;;;;;;;5096551;27;20047;-70
2024/01/05 06:38:49;;;;;;;36.97;17.00;;;;;;;;;;5049588;28;20052;-70
2024/01/05 06:41:53;;;;;;;38.80;17.08;;;;;;;;;;5096809;27;20388;-70
2024/01/05 06:44:57;;;;;;;33.78;15.45;;;;;;;;;;5049235;28;20040;-70
2024/01/05 06:48:02;;;;;;;38.20;17.30;;;;;;;;;;5049368;28;20044;-70
2024/01/05 06:51:06;;;;;;;37.63;15.18;;;;;;;;;;5048563;28;20063;-70
2024/01/05 06:54:13;;;;;;;46.70;16.00;;;;;;;;;;5049058;28;20365;-69
2024/01/05 06:57:17;;;;;;;42.13;14.43;;;;;;;;;;5048950;28;20472;-70
2024/01/05 07:00:21;;;;;;;23.27;13.02;;;;;;;;;;5049410;28;20385;-69
2024/01/05 07:03:25;;;;;;;40.15;14.20;;;;;;;;;;5049061;28;20052;-69
2024/01/05 07:06:30;;;;;;;38.03;13.60;;;;;;;;;;5049209;28;20048;-71
2024/01/05 07:09:37;;;;;;;39.30;14.75;;;;;;;;;;5048865;28;20064;-70
2024/01/05 07:12:41;;;;;;;44.58;14.82;;;;;;;;;;5048917;28;20044;-71
2024/01/05 07:15:45;;;;;;;43.17;14.70;;;;;;;;;;5049003;28;20516;-70
2024/01/05 07:18:50;;;;;;;33.35;13.65;;;;;;;;;;5048449;28;20060;-70
2024/01/05 07:21:54;;;;;;;27.65;12.63;;;;;;;;;;5096200;27;20040;-70
2024/01/05 07:24:59;;;;;;;32.00;12.73;;;;;;;;;;5048700;28;20076;-70
2024/01/05 07:28:03;;;;;;;34.30;12.68;;;;;;;;;;5048777;28;20044;-69
2024/01/05 07:31:09;;;;;;;25.85;12.20;;;;;;;;;;5048623;28;20040;-69
2024/01/05 07:34:21;;;;;;;37.67;13.13;;;;;;;;;;5048614;28;20068;-69
2024/01/05 07:37:25;;;;;;;34.55;13.10;;;;;;;;;;5048571;28;20059;-70
2024/01/05 07:40:29;;;;;;;23.65;11.38;;;;;;;;;;5048671;28;20052;-70
2024/01/05 07:43:33;;;;;;;38.28;13.85;;;;;;;;;;5048388;28;20051;-70
2024/01/05 07:46:41;;;;;;;57.25;15.65;;;12.40;99.90;;;;;;5048633;28;20044;-70
2024/01/05 07:49:45;;;;;;;49.88;15.40;;;;;;;;;;5048434;28;20073;-70
2024/01/05 07:52:49;;;;;;;48.00;15.35;;;;;;;;;;5048340;28;20043;-70
2024/01/05 07:55:54;;;;;;;47.97;14.00;;;;;;;;;;5048302;28;20044;-70
2024/01/05 07:58:58;;;;;;;32.83;12.50;;;;;;;;;;5048451;28;20069;-70
2024/01/05 08:02:02;;;;;;;42.05;14.93;;;;;;;;;;5048101;28;20051;-70
2024/01/05 08:05:09;;;;;;;28.95;12.90;;;;;;;;;;5048416;28;20043;-70
2024/01/05 08:08:13;;;;;;;32.13;11.65;;;;;;;;;;5048368;28;20392;-70
2024/01/05 08:11:17;;;;;;;47.30;10.68;;;;;;;;;;5048046;28;20044;-70
2024/01/05 08:14:22;;;;;;;20.95;8.50;;;;;;;;;;5048432;28;20388;-70
2024/01/05 08:17:26;;;;;;;21.52;8.18;;;;;;;;;;5047937;28;20051;-70
2024/01/05 08:20:30;;;;;;;17.33;7.90;;;;;;;;;;5048244;28;20044;-70
2024/01/05 08:23:35;;;;;;;23.20;8.18;;;;;;;;;;5048077;28;20040;-70
2024/01/05 08:26:39;;;;;;;19.10;7.10;;;;;;;;;;5047973;28;20056;-69
2024/01/05 08:29:43;;;;;;;20.50;7.30;;;;;;;;;;5048130;28;20044;-70
2024/01/05 08:32:51;;;;;;;17.55;6.85;;;;;;;;;;5095300;27;20056;-70
2024/01/05 08:35:55;;;;;;;16.42;5.60;;;;;;;;;;5095571;27;20044;-71
2024/01/05 08:39:00;;;;;;;18.38;4.88;;;;;;;;;;5047764;28;20052;-70
2024/01/05 08:42:04;;;;;;;12.48;3.95;;;;;;;;;;5047613;28;20048;-70
2024/01/05 08:45:09;;;;;;;18.23;4.50;;;;;;;;;;5047883;28;20048;-72
2024/01/05 08:48:21;;;;;;;17.85;3.67;;;;;;;;;;5047586;28;20056;-72
2024/01/05 08:51:25;;;;;;;13.68;3.45;;;;;;;;;;5047711;28;20044;-72
2024/01/05 08:54:29;;;;;;;15.65;3.75;;;;;;;;;;5095178;28;20504;-70
2024/01/05 08:57:34;;;;;;;15.05;3.30;;;;;;;;;;5047476;28;20056;-70
2024/01/05 09:00:39;;;;;;;11.20;3.70;;;;;;;;;;5095679;28;20056;-71
2024/01/05 09:03:47;;;;;;;21.70;3.67;;;;;;;;;;5047336;28;20048;-70
2024/01/05 09:06:51;;;;;;;13.82;3.83;;;;;;;;;;5047400;28;20048;-70
2024/01/05 09:09:55;;;;;;;19.95;4.25;;;;;;;;;;5047576;28;20060;-70
2024/01/05 09:13:03;;;;;;;16.08;3.58;;;;;;;;;;5048933;28;20408;-69
2024/01/05 09:16:08;;;;;;;10.80;3.55;;;;;;;;;;5050769;28;20060;-71
2024/01/05 09:19:12;;;;;;;13.27;3.30;;;;;;;;;;5051121;28;20048;-71
2024/01/05 09:22:16;;;;;;;14.00;4.07;;;;;;;;;;5050621;28;20036;-70
2024/01/05 09:25:22;;;;;;;15.80;5.55;;;;;;;;;;5050910;28;20071;-70
2024/01/05 09:28:28;;;;;;;11.77;3.55;;;;;;;;;;5050725;28;20048;-70
2024/01/05 09:31:32;;;;;;;14.93;3.85;;;;;;;;;;5050851;28;20061;-70
2024/01/05 09:34:36;;;;;;;16.52;4.53;;;;;;;;;;5050733;28;20040;-70
2024/01/05 09:37:41;;;;;;;13.13;4.65;;;;;;;;;;5050441;28;20056;-70
2024/01/05 09:41:04;;;;;;;17.83;5.30;;;;;;;;;;5087326;27;20044;-70
2024/01/05 09:44:31;;;;;;;19.60;4.35;;;;;;;;;;5086792;27;20040;-70
2024/01/05 09:47:57;;;;;;;12.35;4.50;;;;;;;;;;5087080;27;20055;-70
2024/01/05 09:51:22;;;;;;;14.90;4.65;;;;;;;;;;5086983;27;20051;-70
2024/01/05 09:54:46;;;;;;;17.30;5.00;;;;;;;;;;5086693;27;20044;-70
2024/01/05 09:58:10;;;;;;;11.88;4.22;;;;;;;;;;5077493;28;20136;-70
2024/01/05 10:01:35;;;;;;;20.08;4.80;;;;;;;;;;5086415;27;20044;-70
2024/01/05 10:05:01;;;;;;;18.27;5.57;;;;;;;;;;5086500;27;20044;-69
2024/01/05 10:08:24;;;;;;;13.23;4.47;;;;;;;;;;5086529;27;20048;-70
2024/01/05 10:11:48;;;;;;;13.48;4.18;;;;;;;;;;5086435;27;20060;-70
2024/01/05 10:15:12;;;;;;;14.25;4.82;;;;;;;;;;5086093;27;20474;-70
2024/01/05 10:18:36;;;;;;;19.95;5.30;;;;;;;;;;5086234;27;20060;-69
2024/01/05 10:22:08;;;;;;;17.65;4.82;;;;;;;;;;5086538;27;20054;-70
2024/01/05 10:25:36;;;;;;;12.25;3.55;;;;;;;;;;5085446;27;20592;-70
2024/01/05 10:29:12;;;;;;;12.10;3.75;;;;;;;;;;5086209;27;20048;-71
2024/01/05 10:32:38;;;;;;;12.00;4.20;;;;;;;;;;5086338;27;20044;-70
2024/01/05 10:36:06;;;;;;;21.05;4.53;;;17.70;98.60;;;;;;5076935;27;20052;-71
2024/01/05 10:39:31;;;;;;;8.73;3.67;;;;;;;;;;5086222;27;20064;-70
2024/01/05 10:43:10;;;;;;;16.95;4.65;;;17.70;98.10;;;;;;5085978;27;20041;-70
2024/01/05 10:46:35;;;;;;;15.77;4.10;;;;;;;;;;5086248;27;20717;-71
2024/01/05 10:49:59;;;;;;;16.83;4.68;;;;;;;;;;5085876;27;20044;-71
2024/01/05 10:53:24;;;;;;;13.80;4.30;;;;;;;;;;5085373;27;20040;-70
2024/01/05 10:56:53;;;;;;;17.88;4.90;;;;;;;;;;5085372;27;20056;-70
2024/01/05 11:00:17;;;;;;;20.25;5.13;;;;;;;;;;5086000;27;20048;-71
2024/01/05 11:03:44;;;;;;;11.70;4.60;;;;;;;;;;5096894;27;20056;-72
2024/01/05 11:07:09;;;;;;;15.40;4.65;;;;;;;;;;5085517;27;20052;-71
2024/01/05 11:10:55;;;;;;;16.58;4.60;;;18.50;98.00;;;;;;5085345;27;20055;-72
2024/01/05 11:14:36;;;;;;;14.27;4.60;;;;;;;;;;5085504;27;20051;-69
2024/01/05 11:18:14;;;;;;;13.88;4.15;;;18.70;97.40;;;;;;5084951;27;20060;-70
2024/01/05 11:21:42;;;;;;;10.90;4.72;;;;;;;;;;5085359;27;20048;-71
2024/01/05 11:25:06;;;;;;;15.25;4.45;;;;;;;;;;5085209;27;20048;-69
2024/01/05 11:28:40;;;;;;;14.95;4.82;;;18.50;97.60;;;;;;5085495;27;20044;-72
2024/01/05 11:32:05;;;;;;;16.80;5.63;;;;;;;;;;5084678;27;20041;-71
2024/01/05 11:35:29;;;;;;;20.08;5.47;;;;;;;;;;5084621;27;20512;-72
2024/01/05 11:38:54;;;;;;;17.45;5.00;;;;;;;;;;5085321;27;20052;-74
2024/01/05 11:42:24;;;;;;;20.27;5.07;;;18.20;97.70;;;;;;5085069;27;20052;-73
2024/01/05 11:45:49;;;;;;;14.35;4.70;;;;;;;;;;5084820;27;20048;-73
2024/01/05 11:49:29;;;;;;;14.77;4.07;;;;;;;;;;5075828;28;20043;-71
2024/01/05 11:53:11;;;;;;;18.80;4.97;;;17.00;97.50;;;;;;5084687;27;20032;-70
2024/01/05 11:56:36;;;;;;;14.20;5.63;;;;;;;;;;5084689;27;20064;-70
2024/01/05 12:00:00;;;;;;;17.77;4.45;;;;;;;;;;5075776;28;20044;-70
2024/01/05 12:03:25;;;;;;;14.05;4.43;;;;;;;;;;5084422;27;20052;-69
2024/01/05 12:06:53;;;;;;;17.10;4.45;;;17.90;97.90;;;;;;5084515;27;20048;-73
2024/01/05 12:10:23;;;;;;;391.15;29.73;;;18.10;97.90;;;;;;5084603;27;20047;-70
2024/01/05 12:13:47;;;;;;;21.27;4.65;;;;;;;;;;5084858;27;20052;-70
2024/01/05 12:17:15;;;;;;;15.38;4.07;;;;;;;;;;5066393;28;20063;-71
2024/01/05 12:20:39;;;;;;;16.75;4.75;;;;;;;;;;5084093;27;20064;-70
2024/01/05 12:24:05;;;;;;;16.50;5.05;;;;;;;;;;5084576;27;20369;-68
2024/01/05 12:27:40;;;;;;;21.70;5.57;;;17.50;98.50;;;;;;5084721;27;20526;-69
2024/01/05 12:31:05;;;;;;;18.40;4.80;;;18.40;98.80;;;;;;5084240;28;20068;-69
2024/01/05 12:34:30;;;;;;;17.13;4.35;;;;;;;;;;5084237;27;20052;-69
2024/01/05 12:37:55;;;;;;;15.13;4.10;;;;;;;;;;5084160;27;20056;-66
2024/01/05 12:41:20;;;;;;;10.70;3.92;;;;;;;;;;5084152;27;20048;-66
2024/01/05 12:44:44;;;;;;;17.15;4.45;;;;;;;;;;5082208;28;20048;-67
2024/01/05 12:48:12;;;;;;;11.20;4.78;;;20.10;99.50;;;;;;5081063;27;20669;-68
2024/01/05 12:51:46;;;;;;;13.20;4.55;;;;;;;;;;5082730;28;20496;-69
2024/01/05 12:55:26;;;;;;;12.98;4.53;;;;;;;;;;5082915;28;20515;-68
2024/01/05 12:58:50;;;;;;;16.55;4.20;;;;;;;;;;5083664;28;20052;-69
2024/01/05 13:02:14;;;;;;;14.85;4.30;;;;;;;;;;5074845;28;20135;-70
2024/01/05 13:05:38;;;;;;;10.85;5.35;;;;;;;;;;5083986;28;20048;-68
2024/01/05 13:09:03;;;;;;;14.52;4.45;;;;;;;;;;5084259;28;20158;-70
2024/01/05 13:12:27;;;;;;;21.48;4.68;;;;;;;;;;5074672;28;20044;-71
2024/01/05 13:15:51;;;;;;;14.15;3.70;;;;;;;;;;5075066;28;20048;-69
2024/01/05 13:19:15;;;;;;;12.48;3.78;;;;;;;;;;5084017;28;20060;-69
2024/01/05 13:22:39;;;;;;;10.90;3.75;;;;;;;;;;5083702;28;20044;-70
2024/01/05 13:26:03;;;;;;;15.40;3.83;;;;;;;;;;5084023;28;20044;-69
2024/01/05 13:29:28;;;;;;;15.40;4.22;;;;;;;;;;5083522;28;20044;-69
2024/01/05 13:32:52;;;;;;;16.75;5.30;;;;;;;;;;5083656;28;20044;-69
2024/01/05 13:36:16;;;;;;;13.40;4.32;;;;;;;;;;5083703;28;20412;-70
2024/01/05 13:39:41;;;;;;;13.10;3.78;;;;;;;;;;5083671;28;20048;-70
2024/01/05 13:43:05;;;;;;;16.45;5.03;;;;;;;;;;5083681;28;20047;-69
2024/01/05 13:46:29;;;;;;;11.50;4.30;;;;;;;;;;5083598;28;20044;-70
2024/01/05 13:49:53;;;;;;;12.98;4.05;;;17.50;97.60;;;;;;5083833;27;20373;-69
2024/01/05 13:53:18;;;;;;;10.57;3.72;;;;;;;;;;5083571;28;20365;-69
2024/01/05 13:56:42;;;;;;;15.48;4.25;;;;;;;;;;5074644;28;20044;-69
2024/01/05 14:00:06;;;;;;;16.15;3.58;;;;;;;;;;5086635;27;20044;-69
2024/01/05 14:03:32;;;;;;;10.30;3.53;;;;;;;;;;5086800;27;20040;-69
2024/01/05 14:06:56;;;;;;;12.52;3.65;;;;;;;;;;5086667;27;20052;-71
2024/01/05 14:10:20;;;;;;;14.38;3.65;;;;;;;;;;5086776;27;20036;-70
2024/01/05 14:13:44;;;;;;;8.73;3.45;;;;;;;;;;5086782;27;20044;-70
2024/01/05 14:17:09;;;;;;;10.65;3.35;;;;;;;;;;5086531;27;20049;-71
2024/01/05 14:20:33;;;;;;;8.52;3.50;;;;;;;;;;5087807;27;20500;-70
2024/01/05 14:23:58;;;;;;;8.68;3.58;;;;;;;;;;5077838;28;20040;-70
2024/01/05 14:27:23;;;;;;;10.98;3.60;;;16.00;97.10;;;;;;5086129;27;20029;-69
2024/01/05 14:30:48;;;;;;;13.68;3.08;;;;;;;;;;5087253;27;20511;-69
2024/01/05 14:34:12;;;;;;;12.63;3.60;;;;;;;;;;5087146;27;20411;-70
2024/01/05 14:37:38;;;;;;;14.38;4.00;;;;;;;;;;5077299;28;20052;-68
2024/01/05 14:41:04;;;;;;;12.30;3.55;;;;;;;;;;5068894;28;20052;-69
2024/01/05 14:44:29;;;;;;;11.57;3.35;;;;;;;;;;5086331;27;20052;-69
2024/01/05 14:47:53;;;;;;;9.13;3.83;;;;;;;;;;5086146;27;20044;-68
2024/01/05 14:51:17;;;;;;;10.07;3.50;;;;;;;;;;5086396;27;20033;-69
2024/01/05 14:54:42;;;;;;;12.52;4.13;;;;;;;;;;5068252;28;20044;-69
2024/01/05 14:58:06;;;;;;;13.75;4.25;;;;;;;;;;5049596;28;20048;-69
2024/01/05 15:01:31;;;;;;;11.60;4.28;;;;;;;;;;5085903;27;20044;-70
2024/01/05 15:04:55;;;;;;;17.23;5.22;;;;;;;;;;5085871;27;20047;-68
2024/01/05 15:08:19;;;;;;;13.30;5.28;;;;;;;;;;5085820;27;20048;-69
2024/01/05 15:11:43;;;;;;;16.17;5.43;;;;;;;;;;5085057;27;20044;-69
2024/01/05 15:15:08;;;;;;;14.32;5.90;;;;;;;;;;5085958;27;20036;-69
2024/01/05 15:18:32;;;;;;;14.27;6.28;;;;;;;;;;5084841;27;20056;-69
2024/01/05 15:21:57;;;;;;;9.85;5.53;;;;;;;;;;5085844;27;20052;-70
2024/01/05 15:25:21;;;;;;;12.10;7.20;;;;;;;;;;5085248;27;20044;-70
2024/01/05 15:28:46;;;;;;;22.60;8.20;;;;;;;;;;5084792;27;20515;-70
2024/01/05 15:32:10;;;;;;;18.55;8.77;;;;;;;;;;5084853;27;20048;-70
2024/01/05 15:35:35;;;;;;;18.00;8.35;;;;;;;;;;5085343;27;20044;-70
2024/01/05 15:38:59;;;;;;;16.33;7.65;;;;;;;;;;5085322;27;20056;-70
2024/01/05 15:42:24;;;;;;;26.45;10.10;;;;;;;;;;5085076;27;20048;-70
2024/01/05 15:45:47;;;;;;;31.88;9.48;;;;;;;;;;5076203;28;20068;-70
2024/01/05 15:49:11;;;;;;;21.40;9.40;;;;;;;;;;5084860;27;20424;-70
2024/01/05 15:52:35;;;;;;;22.48;10.98;;;;;;;;;;5084749;27;20048;-71
2024/01/05 15:56:00;;;;;;;30.73;12.43;;;;;;;;;;5084868;27;20041;-70
2024/01/05 15:59:29;;;;;;;29.42;11.73;;;;;;;;;;5084887;27;20060;-70
2024/01/05 16:02:53;;;;;;;20.83;11.32;;;;;;;;;;5084851;27;20036;-70
2024/01/05 16:06:19;;;;;;;20.27;10.35;;;;;;;;;;5084706;27;20506;-70
2024/01/05 16:09:43;;;;;;;20.85;10.90;;;;;;;;;;5084690;27;20044;-73
2024/01/05 16:13:07;;;;;;;20.90;9.90;;;;;;;;;;5084542;27;20036;-73
2024/01/05 16:16:32;;;;;;;23.25;11.73;;;;;;;;;;5084612;27;20048;-73
2024/01/05 16:19:56;;;;;;;22.50;12.48;;;;;;;;;;5084142;27;20404;-74
2024/01/05 16:23:20;;;;;;;31.88;16.15;;;;;;;;;;5084430;27;20044;-72
2024/01/05 16:26:46;;;;;;;33.53;17.90;;;;;;;;;;5074291;28;20151;-72
2024/01/05 16:30:10;;;;;;;42.90;19.00;;;;;;;;;;5084287;27;20381;-73
2024/01/05 16:33:35;;;;;;;36.15;19.10;;;;;;;;;;5084834;27;20047;-69
2024/01/05 16:36:59;;;;;;;43.75;20.40;;;;;;;;;;5075488;28;20052;-73
2024/01/05 16:40:24;;;;;;;33.83;19.85;;;;;;;;;;5084609;27;20052;-72
2024/01/05 16:43:49;;;;;;;39.25;20.58;;;;;;;;;;5084103;27;20052;-74
2024/01/05 16:47:13;;;;;;;45.67;21.92;;;;;;;;;;5084554;28;20515;-72
2024/01/05 16:50:41;;;;;;;36.65;20.45;;;;;;;;;;5074796;28;20507;-73
2024/01/05 16:54:05;;;;;;;61.40;23.17;;;;;;;;;;5084686;28;20064;-72
2024/01/05 16:57:29;;;;;;;38.63;20.95;;;;;;;;;;5084090;28;20044;-73
2024/01/05 17:00:54;;;;;;;40.63;25.13;;;;;;;;;;5083553;28;20052;-73
2024/01/05 17:04:18;;;;;;;44.70;21.50;;;;;;;;;;5084219;28;20067;-73
2024/01/05 17:07:43;;;;;;;57.30;31.75;;;;;;;;;;5083556;28;20404;-70
2024/01/05 17:11:08;;;;;;;43.25;24.25;;;;;;;;;;5083859;28;20048;-71
2024/01/05 17:14:33;;;;;;;49.58;26.08;;;;;;;;;;5083831;28;20040;-71
2024/01/05 17:17:58;;;;;;;42.38;24.50;;;;;;;;;;5083613;28;20536;-70
2024/01/05 17:21:22;;;;;;;68.10;27.45;;;;;;;;;;5083315;28;20040;-71
2024/01/05 17:24:46;;;;;;;36.97;21.42;;;;;;;;;;5083576;28;20060;-72
2024/01/05 17:28:10;;;;;;;34.88;19.92;;;;;;;;;;5083505;28;20109;-70
2024/01/05 17:31:34;;;;;;;32.53;16.85;;;;;;;;;;5083474;28;20048;-71
2024/01/05 17:34:58;;;;;;;30.30;16.73;;;;;;;;;;5087061;27;20056;-69
2024/01/05 17:38:22;;;;;;;55.10;26.27;;;;;;;;;;5087126;27;20097;-70
2024/01/05 17:41:46;;;;;;;52.40;30.20;;;;;;;;;;5087375;27;20416;-71
2024/01/05 17:45:10;;;;;;;55.88;31.48;;;;;;;;;;5087238;27;20040;-70
2024/01/05 17:48:35;;;;;;;63.15;32.25;;;;;;;;;;5087136;27;20051;-70
2024/01/05 17:52:00;;;;;;;61.88;35.78;;;;;;;;;;5086861;27;20044;-72
2024/01/05 17:55:24;;;;;;;72.20;36.17;;;;;;;;;;5087072;27;20507;-71
2024/01/05 17:58:49;;;;;;;71.30;39.08;;;;;;;;;;5077411;28;20048;-71
2024/01/05 18:01:53;;;;;;;67.75;38.03;;;;;;;;;;5086426;27;20047;-72
2024/01/05 18:04:57;;;;;;;63.90;34.85;;;;;;;;;;5049912;28;20052;-71
2024/01/05 18:08:01;;;;;;;69.40;36.22;;;;;;;;;;5048656;28;20511;-73
2024/01/05 18:11:08;;;;;;;58.97;32.83;;;;;;;;;;5048611;28;20040;-72
2024/01/05 18:14:15;;;;;;;52.63;31.75;;;;;;;;;;5096377;27;20519;-72
2024/01/05 18:17:19;;;;;;;53.95;32.88;;;;;;;;;;5085111;28;20401;-71
2024/01/05 18:20:24;;;;;;;53.53;29.05;;;;;;;;;;5096103;27;20511;-71
2024/01/05 18:23:28;;;;;;;50.03;27.75;;;;;;;;;;5049527;28;20048;-72
2024/01/05 18:26:35;;;;;;;38.42;26.10;;;;;;;;;;5097241;27;20405;-71
2024/01/05 18:29:39;;;;;;;44.97;25.42;;;;;;;;;;5049901;28;20044;-72
2024/01/05 18:32:44;;;;;;;50.30;26.08;;;;;;;;;;5050036;28;20036;-72
2024/01/05 18:35:49;;;;;;;41.55;25.05;;;;;;;;;;5049743;28;20644;-72